createdAt,value
2019-01-25T00:01:28.758Z,-2.60
2019-01-25T00:03:59.047Z,-2.50
2019-01-25T00:06:29.143Z,-2.60
2019-01-25T00:08:59.249Z,-2.50
2019-01-25T00:11:29.344Z,-2.50
2019-01-25T00:13:59.466Z,-2.50
2019-01-25T00:16:29.562Z,-2.40
2019-01-25T00:18:59.673Z,-2.40
2019-01-25T00:21:29.778Z,-2.40
2019-01-25T00:23:59.960Z,-2.40
2019-01-25T00:26:30.062Z,-2.40
2019-01-25T00:29:00.179Z,-2.40
2019-01-25T00:31:30.279Z,-2.50
2019-01-25T00:34:00.399Z,-2.60
2019-01-25T00:36:30.503Z,-2.50
2019-01-25T00:39:00.616Z,-2.50
2019-01-25T00:41:30.710Z,-2.50
2019-01-25T00:44:00.834Z,-2.50
2019-01-25T00:46:30.930Z,-2.50
2019-01-25T00:49:01.058Z,-2.50
2019-01-25T00:51:31.172Z,-2.50
2019-01-25T00:54:01.277Z,-2.50
2019-01-25T00:56:31.392Z,-2.50
2019-01-25T00:59:01.482Z,-2.50
2019-01-25T01:01:31.599Z,-2.60
2019-01-25T01:04:01.703Z,-2.60
2019-01-25T01:06:31.822Z,-2.60
2019-01-25T01:09:01.915Z,-2.60
2019-01-25T01:11:32.997Z,-2.60
2019-01-25T01:14:03.095Z,-2.60
2019-01-25T01:16:33.205Z,-2.50
2019-01-25T01:19:03.296Z,-2.60
2019-01-25T01:21:33.415Z,-2.60
2019-01-25T01:24:03.504Z,-2.60
2019-01-25T01:26:33.613Z,-2.60
2019-01-25T01:29:03.796Z,-2.60
2019-01-25T01:31:33.909Z,-2.60
2019-01-25T01:34:23.430Z,-2.60
2019-01-25T01:36:53.542Z,-2.60
2019-01-25T01:39:23.628Z,-2.60
2019-01-25T01:41:53.741Z,-2.60
2019-01-25T01:44:23.843Z,-2.50
2019-01-25T01:46:53.951Z,-2.50
2019-01-25T01:49:24.096Z,-2.50
2019-01-25T01:51:54.219Z,-2.60
2019-01-25T01:54:24.315Z,-2.60
2019-01-25T01:56:55.396Z,-2.60
2019-01-25T01:59:25.496Z,-2.60
2019-01-25T02:01:55.610Z,-2.60
2019-01-25T02:04:25.698Z,-2.70
2019-01-25T02:06:55.872Z,-2.70
2019-01-25T02:09:25.965Z,-2.70
2019-01-25T02:11:56.084Z,-2.70
2019-01-25T02:14:26.176Z,-2.70
2019-01-25T02:16:57.365Z,-2.60
2019-01-25T02:19:27.469Z,-2.70
2019-01-25T02:21:57.579Z,-2.70
2019-01-25T02:24:27.673Z,-2.70
2019-01-25T02:26:57.784Z,-2.70
2019-01-25T02:29:27.948Z,-2.70
2019-01-25T02:31:58.075Z,-2.70
2019-01-25T02:34:28.168Z,-2.70
2019-01-25T02:36:58.273Z,-2.70
2019-01-25T02:39:28.368Z,-2.70
2019-01-25T02:41:58.864Z,-2.70
2019-01-25T02:44:28.964Z,-2.70
2019-01-25T02:46:59.075Z,-2.70
2019-01-25T02:49:29.166Z,-2.70
2019-01-25T02:51:59.282Z,-2.70
2019-01-25T02:54:29.378Z,-2.70
2019-01-25T02:56:59.492Z,-2.70
2019-01-25T02:59:29.584Z,-2.70
2019-01-25T03:01:59.697Z,-2.70
2019-01-25T03:04:29.801Z,-2.70
2019-01-25T03:06:59.927Z,-2.70
2019-01-25T03:09:30.018Z,-2.70
2019-01-25T03:12:00.129Z,-2.70
2019-01-25T03:14:30.221Z,-2.70
2019-01-25T03:17:00.332Z,-2.70
2019-01-25T03:19:30.449Z,-2.70
2019-01-25T03:22:00.538Z,-2.70
2019-01-25T03:24:30.658Z,-2.70
2019-01-25T03:27:00.768Z,-2.70
2019-01-25T03:29:30.860Z,-2.70
2019-01-25T03:32:00.998Z,-2.70
2019-01-25T03:34:31.083Z,-2.80
2019-01-25T03:37:01.259Z,-2.80
2019-01-25T03:39:31.360Z,-2.80
2019-01-25T03:42:01.518Z,-2.80
2019-01-25T03:44:31.565Z,-2.80
2019-01-25T03:47:01.672Z,-2.80
2019-01-25T03:49:31.764Z,-2.80
2019-01-25T03:52:01.881Z,-2.80
2019-01-25T03:54:31.979Z,-2.80
2019-01-25T03:57:02.093Z,-2.80
2019-01-25T03:59:32.187Z,-2.80
2019-01-25T04:02:02.301Z,-2.80
2019-01-25T04:04:32.393Z,-2.80
2019-01-25T04:07:02.511Z,-2.80
2019-01-25T04:09:32.605Z,-2.80
2019-01-25T04:12:02.720Z,-2.80
2019-01-25T04:14:32.825Z,-2.80
2019-01-25T04:17:02.940Z,-2.80
2019-01-25T04:19:33.024Z,-2.80
2019-01-25T04:22:03.138Z,-2.80
2019-01-25T04:24:33.232Z,-2.90
2019-01-25T04:27:03.341Z,-2.90
2019-01-25T04:29:33.431Z,-2.90
2019-01-25T04:32:03.551Z,-2.90
2019-01-25T04:34:33.659Z,-2.90
2019-01-25T04:37:03.763Z,-2.90
2019-01-25T04:39:33.934Z,-3.00
2019-01-25T04:42:04.050Z,-3.00
2019-01-25T04:44:34.141Z,-2.90
2019-01-25T04:47:04.259Z,-2.90
2019-01-25T04:49:36.250Z,-3.00
2019-01-25T04:52:12.352Z,-3.00
2019-01-25T04:54:42.443Z,-3.00
2019-01-25T04:57:12.562Z,-3.00
2019-01-25T04:59:42.657Z,-3.10
2019-01-25T05:02:12.768Z,-3.10
2019-01-25T05:04:42.862Z,-3.10
2019-01-25T05:07:12.975Z,-3.10
2019-01-25T05:09:43.076Z,-3.10
2019-01-25T05:12:13.193Z,-3.10
2019-01-25T05:14:43.704Z,-3.10
2019-01-25T05:17:13.813Z,-3.00
2019-01-25T05:19:43.916Z,-3.00
2019-01-25T05:22:14.037Z,-3.00
2019-01-25T05:24:44.134Z,-3.00
2019-01-25T05:27:14.245Z,-3.00
2019-01-25T05:29:54.563Z,-3.00
2019-01-25T05:32:24.774Z,-3.00
2019-01-25T05:34:54.874Z,-3.00
2019-01-25T05:37:24.985Z,-3.00
2019-01-25T05:39:55.074Z,-3.00
2019-01-25T05:42:25.211Z,-3.00
2019-01-25T05:44:55.313Z,-3.00
2019-01-25T05:47:25.422Z,-3.00
2019-01-25T05:49:55.539Z,-3.10
2019-01-25T05:52:25.690Z,-3.10
2019-01-25T05:54:55.803Z,-3.00
2019-01-25T05:57:25.893Z,-3.10
2019-01-25T05:59:56.011Z,-3.00
2019-01-25T06:02:26.116Z,-3.10
2019-01-25T06:04:56.227Z,-3.10
2019-01-25T06:07:27.995Z,-3.10
2019-01-25T06:09:58.112Z,-3.00
2019-01-25T06:12:28.199Z,-3.00
2019-01-25T06:14:58.319Z,-3.00
2019-01-25T06:17:28.415Z,-3.00
2019-01-25T06:19:58.533Z,-3.00
2019-01-25T06:22:28.636Z,-3.00
2019-01-25T06:24:58.752Z,-3.00
2019-01-25T06:27:28.844Z,-3.00
2019-01-25T06:29:58.968Z,-3.00
2019-01-25T06:32:29.063Z,-3.00
2019-01-25T06:34:59.281Z,-3.00
2019-01-25T06:37:29.378Z,-3.00
2019-01-25T06:39:59.496Z,-3.00
2019-01-25T06:42:29.585Z,-3.00
2019-01-25T06:44:59.699Z,-3.00
2019-01-25T06:47:29.797Z,-3.00
2019-01-25T06:49:59.900Z,-3.10
2019-01-25T06:52:29.991Z,-3.00
2019-01-25T06:55:00.223Z,-3.00
2019-01-25T06:57:31.917Z,-3.00
2019-01-25T07:00:02.044Z,-3.00
2019-01-25T07:02:32.130Z,-3.00
2019-01-25T07:05:02.251Z,-3.00
2019-01-25T07:07:33.628Z,-3.00
2019-01-25T07:10:04.815Z,-3.00
2019-01-25T07:12:34.905Z,-3.00
2019-01-25T07:15:08.420Z,-3.00
2019-01-25T07:17:38.516Z,-3.00
2019-01-25T07:20:14.599Z,-2.90
2019-01-25T07:22:44.701Z,-3.00
2019-01-25T07:25:16.149Z,-2.90
2019-01-25T07:27:46.252Z,-2.90
2019-01-25T07:30:17.127Z,-2.90
2019-01-25T07:32:47.190Z,-2.90
2019-01-25T07:35:17.308Z,-2.90
2019-01-25T07:37:47.403Z,-2.90
2019-01-25T07:40:17.520Z,-2.90
2019-01-25T07:42:47.901Z,-2.90
2019-01-25T07:45:18.023Z,-2.80
2019-01-25T07:47:48.177Z,-2.90
2019-01-25T07:50:18.304Z,-2.90
2019-01-25T07:52:48.403Z,-2.80
2019-01-25T07:55:18.578Z,-2.80
2019-01-25T07:57:48.652Z,-2.80
2019-01-25T08:00:18.762Z,-2.80
2019-01-25T08:02:48.857Z,-2.80
2019-01-25T08:05:18.994Z,-2.70
2019-01-25T08:07:49.078Z,-2.70
2019-01-25T08:10:24.127Z,-2.60
2019-01-25T08:12:54.310Z,-2.60
2019-01-25T08:15:26.733Z,-2.50
2019-01-25T08:17:57.824Z,-2.40
2019-01-25T08:20:29.059Z,-2.30
2019-01-25T08:22:59.177Z,-2.30
2019-01-25T08:25:29.296Z,-2.20
2019-01-25T08:27:59.369Z,-2.10
2019-01-25T08:30:29.563Z,-2.10
2019-01-25T08:32:59.854Z,-2.00
2019-01-25T08:35:30.115Z,-1.80
2019-01-25T08:38:00.148Z,-1.70
2019-01-25T08:40:30.261Z,-1.60
2019-01-25T08:43:00.435Z,-1.50
2019-01-25T08:45:30.541Z,-1.50
2019-01-25T08:48:00.662Z,-1.50
2019-01-25T08:50:30.755Z,-1.60
2019-01-25T08:53:00.853Z,-1.70
2019-01-25T08:55:32.062Z,-1.70
2019-01-25T08:58:02.161Z,-1.80
2019-01-25T09:00:44.894Z,-1.80
2019-01-25T09:03:14.987Z,-1.80
2019-01-25T09:05:45.096Z,-1.80
2019-01-25T09:08:15.189Z,-1.80
2019-01-25T09:10:45.300Z,-1.80
2019-01-25T09:13:15.393Z,-1.80
2019-01-25T09:15:45.504Z,-1.80
2019-01-25T09:18:15.588Z,-1.60
2019-01-25T09:20:45.699Z,-1.50
2019-01-25T09:23:15.793Z,-1.40
2019-01-25T09:26:01.163Z,-1.30
2019-01-25T09:28:30.536Z,-1.10
2019-01-25T09:31:00.644Z,-1.00
2019-01-25T09:33:30.736Z,-0.90
2019-01-25T09:36:00.848Z,-0.70
2019-01-25T09:38:30.932Z,-0.50
2019-01-25T09:41:01.051Z,-0.40
2019-01-25T09:43:31.145Z,-0.30
2019-01-25T09:46:01.259Z,-0.20
2019-01-25T09:48:31.357Z,0.10
2019-01-25T09:51:01.464Z,0.20
2019-01-25T09:53:31.556Z,0.20
2019-01-25T09:56:01.679Z,0.30
2019-01-25T09:58:31.767Z,0.30
2019-01-25T10:01:05.487Z,0.10
2019-01-25T10:03:35.576Z,0.00
2019-01-25T10:06:05.694Z,-0.10
2019-01-25T10:08:35.780Z,0.00
2019-01-25T10:11:05.882Z,0.10
2019-01-25T10:13:35.979Z,0.10
2019-01-25T10:16:07.059Z,0.00
2019-01-25T10:18:37.150Z,0.00
2019-01-25T10:21:07.262Z,0.30
2019-01-25T10:23:39.219Z,1.20
2019-01-25T10:26:09.149Z,1.60
2019-01-25T10:28:39.267Z,1.40
2019-01-25T10:31:09.353Z,1.60
2019-01-25T10:33:39.454Z,1.90
2019-01-25T10:36:09.542Z,2.50
2019-01-25T10:38:39.646Z,3.20
2019-01-25T10:41:09.733Z,3.50
2019-01-25T10:43:39.903Z,3.50
2019-01-25T10:46:09.927Z,2.60
2019-01-25T10:48:40.056Z,2.30
2019-01-25T10:51:10.126Z,1.80
2019-01-25T10:53:41.187Z,1.60
2019-01-25T10:56:11.272Z,1.60
2019-01-25T10:58:41.374Z,1.40
2019-01-25T11:01:11.468Z,1.20
2019-01-25T11:03:41.571Z,1.00
2019-01-25T11:06:11.662Z,0.90
2019-01-25T11:08:41.773Z,1.00
2019-01-25T11:11:11.868Z,0.80
2019-01-25T11:13:41.983Z,0.80
2019-01-25T11:16:12.125Z,0.70
2019-01-25T11:18:42.171Z,0.50
2019-01-25T11:21:12.256Z,0.40
2019-01-25T11:23:42.371Z,0.40
2019-01-25T11:26:12.461Z,0.40
2019-01-25T11:28:42.574Z,0.30
2019-01-25T11:31:12.658Z,0.20
2019-01-25T11:33:42.768Z,0.20
2019-01-25T11:36:12.865Z,0.10
2019-01-25T11:38:42.972Z,0.00
2019-01-25T11:41:13.069Z,-0.20
2019-01-25T11:43:43.193Z,-0.30
2019-01-25T11:46:13.293Z,-0.40
2019-01-25T11:49:03.800Z,-0.40
2019-01-25T11:51:33.890Z,-0.40
2019-01-25T11:54:05.077Z,-0.40
2019-01-25T11:56:35.174Z,-0.50
2019-01-25T11:59:05.293Z,-0.50
2019-01-25T12:01:35.378Z,-0.50
2019-01-25T12:04:05.765Z,-0.50
2019-01-25T12:06:35.864Z,-0.40
2019-01-25T12:09:08.812Z,-0.30
2019-01-25T12:11:38.904Z,0.00
2019-01-25T12:14:09.011Z,0.10
2019-01-25T12:16:39.136Z,0.30
2019-01-25T12:19:09.255Z,0.60
2019-01-25T12:21:39.338Z,0.60
2019-01-25T12:24:09.443Z,0.60
2019-01-25T12:26:39.539Z,0.60
2019-01-25T12:29:09.652Z,0.60
2019-01-25T12:31:39.736Z,0.40
2019-01-25T12:34:09.848Z,0.40
2019-01-25T12:36:39.944Z,0.30
2019-01-25T12:39:10.056Z,0.40
2019-01-25T12:41:40.147Z,0.40
2019-01-25T12:44:10.255Z,0.40
2019-01-25T12:46:40.335Z,0.50
2019-01-25T12:49:10.930Z,0.50
2019-01-25T12:51:41.193Z,0.30
2019-01-25T12:54:11.309Z,0.20
2019-01-25T12:56:41.410Z,0.20
2019-01-25T12:59:11.520Z,0.00
2019-01-25T13:01:41.619Z,0.00
2019-01-25T13:04:11.740Z,-0.10
2019-01-25T13:06:41.903Z,-0.10
2019-01-25T13:09:12.033Z,-0.20
2019-01-25T13:11:42.133Z,-0.30
2019-01-25T13:14:12.245Z,-0.20
2019-01-25T13:16:42.348Z,-0.20
2019-01-25T13:19:14.096Z,-0.10
2019-01-25T13:21:44.197Z,-0.10
2019-01-25T13:24:14.374Z,-0.10
2019-01-25T13:26:44.488Z,-0.20
2019-01-25T13:29:14.609Z,-0.10
2019-01-25T13:31:44.723Z,0.00
2019-01-25T13:34:14.897Z,0.20
2019-01-25T13:36:45.080Z,0.40
2019-01-25T13:39:34.707Z,0.40
2019-01-25T13:42:04.778Z,0.40
2019-01-25T13:44:54.327Z,0.30
2019-01-25T13:47:24.411Z,0.10
2019-01-25T13:49:54.586Z,0.00
2019-01-25T13:52:24.678Z,-0.10
2019-01-25T13:54:54.804Z,-0.30
2019-01-25T13:57:24.896Z,-0.40
2019-01-25T13:59:55.028Z,-0.60
2019-01-25T14:02:25.123Z,-0.70
2019-01-25T14:04:55.241Z,-0.70
2019-01-25T14:07:25.405Z,-0.80
2019-01-25T14:09:55.524Z,-0.80
2019-01-25T14:12:25.631Z,-0.80
2019-01-25T14:14:55.767Z,-0.90
2019-01-25T14:17:26.025Z,-0.90
2019-01-25T14:19:56.153Z,-1.00
2019-01-25T14:22:26.255Z,-1.00
2019-01-25T14:24:56.453Z,-1.00
2019-01-25T14:27:26.532Z,-1.00
2019-01-25T14:29:56.660Z,-0.90
2019-01-25T14:32:26.762Z,-0.90
2019-01-25T14:34:56.880Z,-0.90
2019-01-25T14:37:26.987Z,-0.90
2019-01-25T14:39:57.110Z,-0.90
2019-01-25T14:42:27.196Z,-1.00
2019-01-25T14:44:57.316Z,-1.10
2019-01-25T14:47:27.408Z,-1.20
2019-01-25T14:49:57.529Z,-1.20
2019-01-25T14:52:27.617Z,-1.30
2019-01-25T14:54:57.798Z,-1.40
2019-01-25T14:57:27.898Z,-1.40
2019-01-25T14:59:58.016Z,-1.50
2019-01-25T15:02:28.108Z,-1.50
2019-01-25T15:04:58.452Z,-1.60
2019-01-25T15:07:28.589Z,-1.60
2019-01-25T15:09:58.697Z,-1.70
2019-01-25T15:12:28.845Z,-1.70
2019-01-25T15:14:59.371Z,-1.70
2019-01-25T15:17:29.603Z,-1.70
2019-01-25T15:19:59.724Z,-1.80
2019-01-25T15:22:31.483Z,-1.80
2019-01-25T15:25:01.781Z,-1.70
2019-01-25T15:27:31.922Z,-1.70
2019-01-25T15:30:02.248Z,-1.70
2019-01-25T15:32:33.408Z,-1.80
2019-01-25T15:35:04.576Z,-1.80
2019-01-25T15:37:34.675Z,-1.90
2019-01-25T15:40:09.375Z,-1.80
2019-01-25T15:42:39.809Z,-1.80
2019-01-25T15:45:14.267Z,-1.80
2019-01-25T15:47:44.410Z,-1.80
2019-01-25T15:50:28.027Z,-1.80
2019-01-25T15:52:59.083Z,-1.80
2019-01-25T15:55:29.204Z,-1.90
2019-01-25T15:57:59.328Z,-1.90
2019-01-25T16:00:30.066Z,-1.80
2019-01-25T16:03:00.160Z,-1.90
2019-01-25T16:05:30.551Z,-1.90
2019-01-25T16:08:00.707Z,-1.90
2019-01-25T16:10:30.833Z,-1.80
2019-01-25T16:13:00.969Z,-1.80
2019-01-25T16:15:31.144Z,-1.80
2019-01-25T16:18:01.301Z,-1.80
2019-01-25T16:20:31.466Z,-1.80
2019-01-25T16:23:01.555Z,-1.80
2019-01-25T16:25:33.012Z,-1.80
2019-01-25T16:28:03.110Z,-1.80
2019-01-25T16:30:36.039Z,-1.80
2019-01-25T16:33:06.207Z,-1.80
2019-01-25T16:35:36.345Z,-1.80
2019-01-25T16:38:06.554Z,-1.80
2019-01-25T16:40:36.668Z,-1.80
2019-01-25T16:43:06.755Z,-1.80
2019-01-25T16:45:41.630Z,-1.80
2019-01-25T16:48:12.126Z,-1.80
2019-01-25T16:50:42.263Z,-1.80
2019-01-25T16:53:12.350Z,-1.70
2019-01-25T16:55:42.473Z,-1.70
2019-01-25T16:58:12.775Z,-1.70
2019-01-25T17:00:44.489Z,-1.70
2019-01-25T17:03:14.840Z,-1.70
2019-01-25T17:05:44.975Z,-1.80
2019-01-25T17:08:15.067Z,-1.80
2019-01-25T17:10:45.192Z,-1.80
2019-01-25T17:13:15.275Z,-1.80
2019-01-25T17:15:45.399Z,-1.80
2019-01-25T17:18:16.467Z,-1.80
2019-01-25T17:20:46.585Z,-1.80
2019-01-25T17:23:16.677Z,-1.80
2019-01-25T17:25:46.804Z,-1.70
2019-01-25T17:28:16.900Z,-1.80
2019-01-25T17:30:47.026Z,-1.80
2019-01-25T17:33:17.134Z,-1.70
2019-01-25T17:35:47.246Z,-1.80
2019-01-25T17:38:17.375Z,-1.70
2019-01-25T17:40:47.501Z,-1.70
2019-01-25T17:43:17.597Z,-1.70
2019-01-25T17:45:47.717Z,-1.60
2019-01-25T17:48:17.892Z,-1.60
2019-01-25T17:50:48.025Z,-1.70
2019-01-25T17:53:18.118Z,-1.70
2019-01-25T17:55:48.237Z,-1.70
2019-01-25T17:58:18.341Z,-1.70
2019-01-25T18:00:50.116Z,-1.70
2019-01-25T18:03:20.211Z,-1.70
2019-01-25T18:05:52.678Z,-1.70
2019-01-25T18:08:22.703Z,-1.70
2019-01-25T18:10:52.825Z,-1.70
2019-01-25T18:13:22.922Z,-1.70
2019-01-25T18:15:54.674Z,-1.70
2019-01-25T18:18:24.765Z,-1.70
2019-01-25T18:20:54.890Z,-1.70
2019-01-25T18:23:25.666Z,-1.70
2019-01-25T18:25:57.101Z,-1.70
2019-01-25T18:28:37.500Z,-1.70
2019-01-25T18:31:21.226Z,-1.70
2019-01-25T18:33:51.292Z,-1.70
2019-01-25T18:36:21.407Z,-1.60
2019-01-25T18:38:51.497Z,-1.70
2019-01-25T18:41:21.617Z,-1.70
2019-01-25T18:43:51.719Z,-1.60
2019-01-25T18:46:21.844Z,-1.70
2019-01-25T18:48:51.948Z,-1.70
2019-01-25T18:51:22.072Z,-1.70
2019-01-25T18:53:52.173Z,-1.60
2019-01-25T18:56:22.299Z,-1.60
2019-01-25T18:58:52.528Z,-1.60
2019-01-25T19:01:22.666Z,-1.60
2019-01-25T19:03:52.755Z,-1.60
2019-01-25T19:06:22.871Z,-1.60
2019-01-25T19:08:52.972Z,-1.60
2019-01-25T19:11:23.093Z,-1.60
2019-01-25T19:13:54.050Z,-1.60
2019-01-25T19:16:24.167Z,-1.60
2019-01-25T19:18:54.267Z,-1.60
2019-01-25T19:21:24.423Z,-1.60
2019-01-25T19:23:54.512Z,-1.60
2019-01-25T19:26:24.645Z,-1.60
2019-01-25T19:28:55.829Z,-1.70
2019-01-25T19:31:25.927Z,-1.60
2019-01-25T19:33:56.039Z,-1.60
2019-01-25T19:36:26.132Z,-1.70
2019-01-25T19:38:56.260Z,-1.60
2019-01-25T19:41:26.348Z,-1.70
2019-01-25T19:43:56.464Z,-1.70
2019-01-25T19:46:26.554Z,-1.70
2019-01-25T19:48:56.672Z,-1.70
2019-01-25T19:51:26.765Z,-1.70
2019-01-25T19:53:56.885Z,-1.70
2019-01-25T19:56:26.976Z,-1.70
2019-01-25T19:58:57.176Z,-1.70
2019-01-25T20:01:27.275Z,-1.70
2019-01-25T20:03:57.406Z,-1.80
2019-01-25T20:06:27.501Z,-1.70
2019-01-25T20:08:57.615Z,-1.80
2019-01-25T20:11:27.703Z,-1.80
2019-01-25T20:13:57.832Z,-1.80
2019-01-25T20:16:27.927Z,-1.80
2019-01-25T20:18:58.043Z,-1.80
2019-01-25T20:21:28.133Z,-1.80
2019-01-25T20:23:58.247Z,-1.90
2019-01-25T20:26:28.356Z,-1.80
2019-01-25T20:28:58.471Z,-1.80
2019-01-25T20:31:28.591Z,-1.90
2019-01-25T20:33:58.710Z,-1.90
2019-01-25T20:36:28.809Z,-2.00
2019-01-25T20:38:58.935Z,-1.90
2019-01-25T20:41:29.028Z,-1.90
2019-01-25T20:43:59.144Z,-2.00
2019-01-25T20:46:29.232Z,-2.00
2019-01-25T20:48:59.345Z,-2.00
2019-01-25T20:51:29.544Z,-2.00
2019-01-25T20:53:59.813Z,-2.00
2019-01-25T20:56:29.932Z,-2.00
2019-01-25T20:59:00.458Z,-2.00
2019-01-25T21:01:30.555Z,-2.00
2019-01-25T21:04:12.927Z,-1.90
2019-01-25T21:06:43.084Z,-1.90
2019-01-25T21:09:13.351Z,-1.90
2019-01-25T21:11:43.445Z,-1.90
2019-01-25T21:14:13.975Z,-1.90
2019-01-25T21:16:44.142Z,-1.90
2019-01-25T21:19:14.268Z,-1.90
2019-01-25T21:21:44.365Z,-1.90
2019-01-25T21:24:14.495Z,-1.90
2019-01-25T21:26:44.589Z,-1.90
2019-01-25T21:29:14.711Z,-1.90
2019-01-25T21:31:44.808Z,-1.90
2019-01-25T21:34:14.923Z,-1.90
2019-01-25T21:36:45.016Z,-1.90
2019-01-25T21:39:15.137Z,-1.90
2019-01-25T21:41:45.233Z,-1.90
2019-01-25T21:44:15.352Z,-1.90
2019-01-25T21:46:45.444Z,-1.90
2019-01-25T21:49:15.565Z,-1.80
2019-01-25T21:51:45.664Z,-1.80
2019-01-25T21:54:15.797Z,-1.80
2019-01-25T21:56:45.901Z,-1.80
2019-01-25T21:59:16.028Z,-1.80
2019-01-25T22:01:46.119Z,-1.80
2019-01-25T22:04:16.239Z,-1.80
2019-01-25T22:06:46.333Z,-1.70
2019-01-25T22:09:16.459Z,-1.70
2019-01-25T22:11:46.551Z,-1.70
2019-01-25T22:14:16.681Z,-1.70
2019-01-25T22:16:46.771Z,-1.70
2019-01-25T22:19:16.913Z,-1.70
2019-01-25T22:21:47.051Z,-1.70
2019-01-25T22:24:17.171Z,-1.70
2019-01-25T22:26:48.238Z,-1.70
2019-01-25T22:29:18.356Z,-1.60
2019-01-25T22:31:48.448Z,-1.60
2019-01-25T22:34:18.577Z,-1.60
2019-01-25T22:36:48.693Z,-1.60
2019-01-25T22:39:18.793Z,-1.60
2019-01-25T22:41:48.892Z,-1.70
2019-01-25T22:44:19.023Z,-1.60
2019-01-25T22:46:49.115Z,-1.70
2019-01-25T22:49:19.225Z,-1.70
2019-01-25T22:51:49.321Z,-1.70
2019-01-25T22:54:19.438Z,-1.70
2019-01-25T22:56:49.534Z,-1.80
2019-01-25T22:59:19.648Z,-1.80
2019-01-25T23:01:49.743Z,-1.70
2019-01-25T23:04:30.227Z,-1.70
2019-01-25T23:07:01.801Z,-1.70
2019-01-25T23:09:31.893Z,-1.70
2019-01-25T23:12:03.497Z,-1.80
2019-01-25T23:14:33.616Z,-1.80
2019-01-25T23:17:03.857Z,-1.80
2019-01-25T23:19:33.964Z,-1.70
2019-01-25T23:22:07.061Z,-1.70
2019-01-25T23:24:37.151Z,-1.70
2019-01-25T23:27:07.240Z,-1.70
2019-01-25T23:29:37.360Z,-1.80
2019-01-25T23:32:07.511Z,-1.80
2019-01-25T23:34:37.610Z,-1.80
2019-01-25T23:37:07.765Z,-1.80
2019-01-25T23:39:37.887Z,-1.90
2019-01-25T23:42:08.024Z,-1.90
2019-01-25T23:44:38.163Z,-1.90
2019-01-25T23:47:08.310Z,-1.90
2019-01-25T23:49:38.439Z,-1.90
2019-01-25T23:52:08.770Z,-1.90
2019-01-25T23:54:38.871Z,-1.90
2019-01-25T23:57:10.000Z,-1.90
2019-01-25T23:59:40.112Z,-1.80
